sensor_id;sensor_type;location;lat;lon;timestamp;pressure;altitude;pressure_sealevel;temperature;humidity
50484;BME280;36409;52.168;20.878;2023-09-19T00:02:14;99832.52;;;17.60;66.45
50484;BME280;36409;52.168;20.878;2023-09-19T00:04:48;99824.61;;;17.60;66.91
50484;BME280;36409;52.168;20.878;2023-09-19T00:07:23;99829.98;;;17.58;66.91
50484;BME280;36409;52.168;20.878;2023-09-19T00:09:55;99818.55;;;17.58;66.70
50484;BME280;36409;52.168;20.878;2023-09-19T00:12:28;99820.35;;;17.57;66.92
50484;BME280;36409;52.168;20.878;2023-09-19T00:15:00;99822.99;;;17.57;66.96
50484;BME280;36409;52.168;20.878;2023-09-19T00:17:36;99822.12;;;17.57;67.10
50484;BME280;36409;52.168;20.878;2023-09-19T00:20:12;99819.58;;;17.55;67.15
50484;BME280;36409;52.168;20.878;2023-09-19T00:22:48;99819.67;;;17.54;66.98
50484;BME280;36409;52.168;20.878;2023-09-19T00:25:21;99821.44;;;17.53;67.17
50484;BME280;36409;52.168;20.878;2023-09-19T00:27:55;99810.97;;;17.52;67.02
50484;BME280;36409;52.168;20.878;2023-09-19T00:30:30;99810.10;;;17.51;67.09
50484;BME280;36409;52.168;20.878;2023-09-19T00:33:06;99813.70;;;17.50;67.32
50484;BME280;36409;52.168;20.878;2023-09-19T00:35:39;99811.13;;;17.49;67.71
50484;BME280;36409;52.168;20.878;2023-09-19T00:38:21;99808.58;;;17.47;67.55
50484;BME280;36409;52.168;20.878;2023-09-19T00:40:58;99811.27;;;17.45;67.36
50484;BME280;36409;52.168;20.878;2023-09-19T00:43:31;99814.78;;;17.46;67.52
50484;BME280;36409;52.168;20.878;2023-09-19T00:46:06;99808.73;;;17.44;67.76
50484;BME280;36409;52.168;20.878;2023-09-19T00:48:42;99803.45;;;17.44;67.82
50484;BME280;36409;52.168;20.878;2023-09-19T00:51:15;99801.74;;;17.43;67.76
50484;BME280;36409;52.168;20.878;2023-09-19T00:53:51;99796.56;;;17.41;67.87
50484;BME280;36409;52.168;20.878;2023-09-19T00:56:23;99807.16;;;17.40;67.85
50484;BME280;36409;52.168;20.878;2023-09-19T00:58:56;99806.42;;;17.38;67.82
50484;BME280;36409;52.168;20.878;2023-09-19T01:01:29;99790.66;;;17.36;67.80
50484;BME280;36409;52.168;20.878;2023-09-19T01:04:02;99795.93;;;17.36;67.43
50484;BME280;36409;52.168;20.878;2023-09-19T01:06:35;99787.17;;;17.36;67.84
50484;BME280;36409;52.168;20.878;2023-09-19T01:09:10;99781.96;;;17.34;67.90
50484;BME280;36409;52.168;20.878;2023-09-19T01:11:47;99783.77;;;17.34;68.35
50484;BME280;36409;52.168;20.878;2023-09-19T01:14:30;99778.58;;;17.32;68.28
50484;BME280;36409;52.168;20.878;2023-09-19T01:17:14;99793.47;;;17.33;68.32
50484;BME280;36409;52.168;20.878;2023-09-19T01:20:06;99782.05;;;17.33;68.15
50484;BME280;36409;52.168;20.878;2023-09-19T01:22:52;99770.66;;;17.32;68.11
50484;BME280;36409;52.168;20.878;2023-09-19T01:26:01;99773.30;;;17.32;68.48
50484;BME280;36409;52.168;20.878;2023-09-19T01:28:54;99769.73;;;17.33;68.45
50484;BME280;36409;52.168;20.878;2023-09-19T01:31:33;99767.16;;;17.32;68.32
50484;BME280;36409;52.168;20.878;2023-09-19T01:34:07;99763.59;;;17.33;68.65
50484;BME280;36409;52.168;20.878;2023-09-19T01:36:40;99760.95;;;17.33;68.68
50484;BME280;36409;52.168;20.878;2023-09-19T01:39:14;99758.22;;;17.34;68.82
50484;BME280;36409;52.168;20.878;2023-09-19T01:41:56;99757.30;;;17.35;68.69
50484;BME280;36409;52.168;20.878;2023-09-19T01:44:31;99747.62;;;17.36;68.85
50484;BME280;36409;52.168;20.878;2023-09-19T01:47:17;99753.73;;;17.36;68.96
50484;BME280;36409;52.168;20.878;2023-09-19T01:49:59;99749.33;;;17.37;68.85
50484;BME280;36409;52.168;20.878;2023-09-19T01:52:38;99739.61;;;17.37;69.30
50484;BME280;36409;52.168;20.878;2023-09-19T01:55:16;99737.84;;;17.38;68.64
50484;BME280;36409;52.168;20.878;2023-09-19T01:58:00;99743.12;;;17.38;68.92
50484;BME280;36409;52.168;20.878;2023-09-19T02:00:40;99741.31;;;17.38;69.12
50484;BME280;36409;52.168;20.878;2023-09-19T02:03:14;99736.97;;;17.37;68.59
50484;BME280;36409;52.168;20.878;2023-09-19T02:05:51;99748.39;;;17.38;68.99
50484;BME280;36409;52.168;20.878;2023-09-19T02:08:27;99742.25;;;17.37;69.29
50484;BME280;36409;52.168;20.878;2023-09-19T02:11:01;99739.61;;;17.37;68.61
50484;BME280;36409;52.168;20.878;2023-09-19T02:13:34;99736.20;;;17.35;68.95
50484;BME280;36409;52.168;20.878;2023-09-19T02:16:07;99738.84;;;17.35;69.34
50484;BME280;36409;52.168;20.878;2023-09-19T02:18:42;99736.28;;;17.34;68.97
50484;BME280;36409;52.168;20.878;2023-09-19T02:21:15;99724.91;;;17.33;69.37
50484;BME280;36409;52.168;20.878;2023-09-19T02:23:49;99728.47;;;17.32;69.14
50484;BME280;36409;52.168;20.878;2023-09-19T02:26:23;99721.48;;;17.31;69.47
50484;BME280;36409;52.168;20.878;2023-09-19T02:28:58;99728.62;;;17.29;69.35
50484;BME280;36409;52.168;20.878;2023-09-19T02:31:32;99720.80;;;17.27;69.52
50484;BME280;36409;52.168;20.878;2023-09-19T02:34:04;99720.95;;;17.24;69.38
50484;BME280;36409;52.168;20.878;2023-09-19T02:36:38;99721.97;;;17.22;69.50
50484;BME280;36409;52.168;20.878;2023-09-19T02:39:18;99718.55;;;17.20;69.52
50484;BME280;36409;52.168;20.878;2023-09-19T02:41:51;99721.25;;;17.18;69.59
50484;BME280;36409;52.168;20.878;2023-09-19T02:44:23;99717.00;;;17.16;69.24
50484;BME280;36409;52.168;20.878;2023-09-19T02:46:56;99714.45;;;17.14;69.58
50484;BME280;36409;52.168;20.878;2023-09-19T02:49:31;99704.90;;;17.11;69.29
50484;BME280;36409;52.168;20.878;2023-09-19T02:52:04;99701.52;;;17.09;69.80
50484;BME280;36409;52.168;20.878;2023-09-19T02:54:40;99706.02;;;17.07;69.40
50484;BME280;36409;52.168;20.878;2023-09-19T02:57:16;99699.13;;;17.05;69.74
50484;BME280;36409;52.168;20.878;2023-09-19T02:59:50;99696.55;;;17.03;69.87
50484;BME280;36409;52.168;20.878;2023-09-19T03:02:23;99690.44;;;17.03;69.53
50484;BME280;36409;52.168;20.878;2023-09-19T03:04:58;99687.02;;;17.01;69.93
50484;BME280;36409;52.168;20.878;2023-09-19T03:07:31;99695.02;;;16.99;69.96
50484;BME280;36409;52.168;20.878;2023-09-19T03:10:06;99689.02;;;16.95;69.97
50484;BME280;36409;52.168;20.878;2023-09-19T03:12:38;99692.64;;;16.93;69.78
50484;BME280;36409;52.168;20.878;2023-09-19T03:15:11;99689.23;;;16.91;69.95
50484;BME280;36409;52.168;20.878;2023-09-19T03:17:45;99685.84;;;16.89;69.64
50484;BME280;36409;52.168;20.878;2023-09-19T03:20:23;99684.20;;;16.86;69.85
50484;BME280;36409;52.168;20.878;2023-09-19T03:22:55;99692.20;;;16.85;69.77
50484;BME280;36409;52.168;20.878;2023-09-19T03:25:29;99692.34;;;16.81;70.05
50484;BME280;36409;52.168;20.878;2023-09-19T03:28:07;99692.43;;;16.80;69.79
50484;BME280;36409;52.168;20.878;2023-09-19T03:30:42;99685.55;;;16.77;70.25
50484;BME280;36409;52.168;20.878;2023-09-19T03:33:15;99682.97;;;16.76;70.04
50484;BME280;36409;52.168;20.878;2023-09-19T03:35:53;99686.53;;;16.75;70.25
50484;BME280;36409;52.168;20.878;2023-09-19T03:38:26;99683.98;;;16.73;69.92
50484;BME280;36409;52.168;20.878;2023-09-19T03:41:01;99679.64;;;16.72;70.55
50484;BME280;36409;52.168;20.878;2023-09-19T03:43:38;99677.94;;;16.71;70.25
50484;BME280;36409;52.168;20.878;2023-09-19T03:46:28;99677.09;;;16.71;70.58
50484;BME280;36409;52.168;20.878;2023-09-19T03:49:15;99681.44;;;16.72;70.51
50484;BME280;36409;52.168;20.878;2023-09-19T03:51:52;99674.38;;;16.72;70.43
50484;BME280;36409;52.168;20.878;2023-09-19T03:54:25;99676.08;;;16.73;70.49
50484;BME280;36409;52.168;20.878;2023-09-19T03:57:06;99668.03;;;16.76;70.49
50484;BME280;36409;52.168;20.878;2023-09-19T03:59:38;99664.47;;;16.77;70.87
50484;BME280;36409;52.168;20.878;2023-09-19T04:02:13;99654.77;;;16.78;70.55
50484;BME280;36409;52.168;20.878;2023-09-19T04:04:53;99663.45;;;16.80;70.59
50484;BME280;36409;52.168;20.878;2023-09-19T04:07:26;99654.67;;;16.79;70.59
50484;BME280;36409;52.168;20.878;2023-09-19T04:10:02;99659.94;;;16.79;70.84
50484;BME280;36409;52.168;20.878;2023-09-19T04:12:35;99657.40;;;16.78;70.68
50484;BME280;36409;52.168;20.878;2023-09-19T04:15:09;99650.33;;;16.78;70.73
50484;BME280;36409;52.168;20.878;2023-09-19T04:17:44;99653.83;;;16.79;70.95
50484;BME280;36409;52.168;20.878;2023-09-19T04:20:20;99653.92;;;16.77;70.80
50484;BME280;36409;52.168;20.878;2023-09-19T04:22:53;99650.33;;;16.78;70.93
50484;BME280;36409;52.168;20.878;2023-09-19T04:25:34;99645.06;;;16.78;70.73
50484;BME280;36409;52.168;20.878;2023-09-19T04:28:06;99641.59;;;16.78;70.65
50484;BME280;36409;52.168;20.878;2023-09-19T04:30:41;99640.81;;;16.76;71.20
50484;BME280;36409;52.168;20.878;2023-09-19T04:33:13;99639.97;;;16.75;70.71
50484;BME280;36409;52.168;20.878;2023-09-19T04:35:46;99642.61;;;16.75;71.24
50484;BME280;36409;52.168;20.878;2023-09-19T04:38:23;99640.90;;;16.74;70.86
50484;BME280;36409;52.168;20.878;2023-09-19T04:40:59;99638.27;;;16.74;71.15
50484;BME280;36409;52.168;20.878;2023-09-19T04:43:35;99640.90;;;16.74;71.04
50484;BME280;36409;52.168;20.878;2023-09-19T04:46:08;99637.39;;;16.74;70.79
50484;BME280;36409;52.168;20.878;2023-09-19T04:48:41;99634.70;;;16.75;70.89
50484;BME280;36409;52.168;20.878;2023-09-19T04:51:13;99638.11;;;16.77;71.14
50484;BME280;36409;52.168;20.878;2023-09-19T04:53:46;99631.97;;;16.77;71.13
50484;BME280;36409;52.168;20.878;2023-09-19T04:56:21;99636.23;;;16.79;70.86
50484;BME280;36409;52.168;20.878;2023-09-19T04:58:55;99635.23;;;16.82;71.37
50484;BME280;36409;52.168;20.878;2023-09-19T05:01:29;99637.63;;;16.87;70.98
50484;BME280;36409;52.168;20.878;2023-09-19T05:04:06;99640.86;;;16.92;71.30
50484;BME280;36409;52.168;20.878;2023-09-19T05:06:39;99637.95;;;16.98;71.47
50484;BME280;36409;52.168;20.878;2023-09-19T05:09:15;99629.56;;;17.07;71.43
50484;BME280;36409;52.168;20.878;2023-09-19T05:11:50;99634.48;;;17.13;71.28
50484;BME280;36409;52.168;20.878;2023-09-19T05:14:23;99628.04;;;17.19;71.20
50484;BME280;36409;52.168;20.878;2023-09-19T05:16:56;99627.88;;;17.22;71.33
50484;BME280;36409;52.168;20.878;2023-09-19T05:19:28;99634.77;;;17.25;71.12
50484;BME280;36409;52.168;20.878;2023-09-19T05:22:01;99629.34;;;17.28;71.46
50484;BME280;36409;52.168;20.878;2023-09-19T05:24:33;99623.97;;;17.29;71.29
50484;BME280;36409;52.168;20.878;2023-09-19T05:27:06;99627.48;;;17.30;71.22
50484;BME280;36409;52.168;20.878;2023-09-19T05:29:39;99628.25;;;17.32;71.45
50484;BME280;36409;52.168;20.878;2023-09-19T05:32:14;99634.27;;;17.34;71.52
50484;BME280;36409;52.168;20.878;2023-09-19T05:34:47;99622.73;;;17.37;71.28
50484;BME280;36409;52.168;20.878;2023-09-19T05:37:19;99619.06;;;17.39;71.27
50484;BME280;36409;52.168;20.878;2023-09-19T05:39:52;99622.47;;;17.41;71.49
50484;BME280;36409;52.168;20.878;2023-09-19T05:42:26;99609.96;;;17.45;71.42
50484;BME280;36409;52.168;20.878;2023-09-19T05:44:59;99615.75;;;17.52;71.32
50484;BME280;36409;52.168;20.878;2023-09-19T05:47:32;99618.91;;;17.58;71.58
50484;BME280;36409;52.168;20.878;2023-09-19T05:50:06;99615.92;;;17.65;71.52
50484;BME280;36409;52.168;20.878;2023-09-19T05:52:40;99611.25;;;17.70;71.27
50484;BME280;36409;52.168;20.878;2023-09-19T05:55:15;99610.83;;;17.78;71.37
50484;BME280;36409;52.168;20.878;2023-09-19T05:57:51;99614.71;;;17.86;71.34
50484;BME280;36409;52.168;20.878;2023-09-19T06:00:25;99620.50;;;17.93;71.47
50484;BME280;36409;52.168;20.878;2023-09-19T06:02:59;99629.89;;;17.99;71.33
50484;BME280;36409;52.168;20.878;2023-09-19T06:05:32;99638.31;;;18.05;71.24
50484;BME280;36409;52.168;20.878;2023-09-19T06:08:05;99638.72;;;18.14;71.23
50484;BME280;36409;52.168;20.878;2023-09-19T06:10:39;99646.88;;;18.25;71.42
50484;BME280;36409;52.168;20.878;2023-09-19T06:13:11;99644.56;;;18.35;71.39
50484;BME280;36409;52.168;20.878;2023-09-19T06:15:43;99644.89;;;18.45;71.08
50484;BME280;36409;52.168;20.878;2023-09-19T06:18:17;99655.08;;;18.51;71.10
50484;BME280;36409;52.168;20.878;2023-09-19T06:20:52;99647.75;;;18.56;71.00
50484;BME280;36409;52.168;20.878;2023-09-19T06:23:24;99650.02;;;18.62;71.27
50484;BME280;36409;52.168;20.878;2023-09-19T06:25:57;99652.31;;;18.68;71.09
50484;BME280;36409;52.168;20.878;2023-09-19T06:28:30;99649.30;;;18.75;71.19
50484;BME280;36409;52.168;20.878;2023-09-19T06:31:05;99647.80;;;18.85;70.87
50484;BME280;36409;52.168;20.878;2023-09-19T06:33:43;99648.62;;;19.02;70.49
50484;BME280;36409;52.168;20.878;2023-09-19T06:36:15;99653.42;;;19.24;70.57
50484;BME280;36409;52.168;20.878;2023-09-19T06:38:49;99655.09;;;19.54;70.20
50484;BME280;36409;52.168;20.878;2023-09-19T06:41:23;99652.05;;;19.74;70.04
50484;BME280;36409;52.168;20.878;2023-09-19T06:43:56;99654.53;;;20.05;70.21
50484;BME280;36409;52.168;20.878;2023-09-19T06:46:29;99656.48;;;20.16;69.68
50484;BME280;36409;52.168;20.878;2023-09-19T06:49:07;99666.23;;;20.43;69.79
50484;BME280;36409;52.168;20.878;2023-09-19T06:51:41;99663.44;;;20.85;69.39
50484;BME280;36409;52.168;20.878;2023-09-19T06:54:14;99655.72;;;21.20;68.88
50484;BME280;36409;52.168;20.878;2023-09-19T06:56:50;99651.02;;;21.37;68.59
50484;BME280;36409;52.168;20.878;2023-09-19T06:59:22;99648.98;;;21.53;68.53
50484;BME280;36409;52.168;20.878;2023-09-19T07:01:55;99659.92;;;21.49;68.38
50484;BME280;36409;52.168;20.878;2023-09-19T07:04:31;99654.50;;;21.50;68.74
50484;BME280;36409;52.168;20.878;2023-09-19T07:07:03;99658.22;;;21.60;68.01
50484;BME280;36409;52.168;20.878;2023-09-19T07:09:36;99662.66;;;21.73;67.74
50484;BME280;36409;52.168;20.878;2023-09-19T07:12:09;99663.89;;;21.80;68.11
50484;BME280;36409;52.168;20.878;2023-09-19T07:14:43;99666.00;;;21.88;67.54
50484;BME280;36409;52.168;20.878;2023-09-19T07:17:15;99665.66;;;21.93;67.52
50484;BME280;36409;52.168;20.878;2023-09-19T07:19:50;99669.67;;;21.98;67.51
50484;BME280;36409;52.168;20.878;2023-09-19T07:22:27;99674.90;;;22.00;67.16
50484;BME280;36409;52.168;20.878;2023-09-19T07:24:59;99679.13;;;22.02;66.91
50484;BME280;36409;52.168;20.878;2023-09-19T07:27:32;99677.21;;;22.04;67.19
50484;BME280;36409;52.168;20.878;2023-09-19T07:30:07;99686.02;;;22.05;66.57
50484;BME280;36409;52.168;20.878;2023-09-19T07:32:40;99692.20;;;22.05;66.74
50484;BME280;36409;52.168;20.878;2023-09-19T07:35:13;99696.22;;;22.11;66.55
50484;BME280;36409;52.168;20.878;2023-09-19T07:37:46;99700.11;;;22.18;65.93
50484;BME280;36409;52.168;20.878;2023-09-19T07:40:21;99705.35;;;22.31;66.41
50484;BME280;36409;52.168;20.878;2023-09-19T07:42:54;99706.40;;;22.42;65.64
50484;BME280;36409;52.168;20.878;2023-09-19T07:45:27;99704.60;;;22.42;65.63
50484;BME280;36409;52.168;20.878;2023-09-19T07:48:01;99708.22;;;22.41;65.86
50484;BME280;36409;52.168;20.878;2023-09-19T07:50:37;99703.31;;;22.35;65.42
50484;BME280;36409;52.168;20.878;2023-09-19T07:53:10;99706.31;;;22.30;64.90
50484;BME280;36409;52.168;20.878;2023-09-19T07:55:44;99696.02;;;22.26;64.77
50484;BME280;36409;52.168;20.878;2023-09-19T07:58:22;99700.51;;;22.25;65.26
50484;BME280;36409;52.168;20.878;2023-09-19T08:00:54;99705.82;;;22.25;64.83
50484;BME280;36409;52.168;20.878;2023-09-19T08:03:26;99710.80;;;22.30;64.74
50484;BME280;36409;52.168;20.878;2023-09-19T08:05:59;99720.56;;;22.29;64.39
50484;BME280;36409;52.168;20.878;2023-09-19T08:08:31;99719.47;;;22.45;64.43
50484;BME280;36409;52.168;20.878;2023-09-19T08:11:05;99731.06;;;22.68;63.96
50484;BME280;36409;52.168;20.878;2023-09-19T08:13:42;99732.67;;;22.82;63.67
50484;BME280;36409;52.168;20.878;2023-09-19T08:16:17;99729.41;;;22.78;63.53
50484;BME280;36409;52.168;20.878;2023-09-19T08:18:52;99723.56;;;22.73;64.13
50484;BME280;36409;52.168;20.878;2023-09-19T08:21:28;99723.56;;;22.73;63.68
50484;BME280;36409;52.168;20.878;2023-09-19T08:24:08;99729.84;;;22.72;63.22
50484;BME280;36409;52.168;20.878;2023-09-19T08:26:41;99733.33;;;22.61;63.45
50484;BME280;36409;52.168;20.878;2023-09-19T08:29:15;99729.88;;;22.48;63.57
50484;BME280;36409;52.168;20.878;2023-09-19T08:31:49;99734.98;;;22.38;63.72
50484;BME280;36409;52.168;20.878;2023-09-19T08:34:23;99740.38;;;22.25;63.56
50484;BME280;36409;52.168;20.878;2023-09-19T08:36:57;99738.73;;;22.11;63.52
50484;BME280;36409;52.168;20.878;2023-09-19T08:39:29;99733.44;;;21.98;63.32
50484;BME280;36409;52.168;20.878;2023-09-19T08:42:04;99724.34;;;21.89;63.40
50484;BME280;36409;52.168;20.878;2023-09-19T08:44:39;99725.63;;;21.84;63.57
50484;BME280;36409;52.168;20.878;2023-09-19T08:47:16;99719.57;;;21.82;63.94
50484;BME280;36409;52.168;20.878;2023-09-19T08:50:00;99721.61;;;21.78;63.67
50484;BME280;36409;52.168;20.878;2023-09-19T08:52:43;99720.45;;;21.69;63.74
50484;BME280;36409;52.168;20.878;2023-09-19T08:55:16;99722.23;;;21.56;63.40
50484;BME280;36409;52.168;20.878;2023-09-19T08:57:55;99726.28;;;21.49;63.55
50484;BME280;36409;52.168;20.878;2023-09-19T09:00:32;99728.28;;;21.45;63.69
50484;BME280;36409;52.168;20.878;2023-09-19T09:03:09;99723.20;;;21.42;63.95
50484;BME280;36409;52.168;20.878;2023-09-19T09:05:43;99731.50;;;21.37;64.16
50484;BME280;36409;52.168;20.878;2023-09-19T09:08:20;99740.19;;;21.26;63.95
50484;BME280;36409;52.168;20.878;2023-09-19T09:10:54;99759.59;;;21.14;64.37
50484;BME280;36409;52.168;20.878;2023-09-19T09:13:28;99765.53;;;21.05;64.01
50484;BME280;36409;52.168;20.878;2023-09-19T09:16:02;99767.11;;;20.94;64.13
50484;BME280;36409;52.168;20.878;2023-09-19T09:18:35;99743.62;;;20.75;64.02
50484;BME280;36409;52.168;20.878;2023-09-19T09:21:12;99735.55;;;20.49;64.41
50484;BME280;36409;52.168;20.878;2023-09-19T09:23:45;99749.55;;;20.24;64.29
50484;BME280;36409;52.168;20.878;2023-09-19T09:26:18;99756.23;;;20.02;64.98
50484;BME280;36409;52.168;20.878;2023-09-19T09:29:08;99767.95;;;19.84;65.05
50484;BME280;36409;52.168;20.878;2023-09-19T09:31:40;99774.84;;;19.72;65.69
50484;BME280;36409;52.168;20.878;2023-09-19T09:34:14;99778.83;;;19.65;65.72
50484;BME280;36409;52.168;20.878;2023-09-19T09:36:49;99784.52;;;19.58;65.80
50484;BME280;36409;52.168;20.878;2023-09-19T09:39:32;99787.69;;;19.49;66.06
50484;BME280;36409;52.168;20.878;2023-09-19T09:42:06;99784.84;;;19.38;66.19
50484;BME280;36409;52.168;20.878;2023-09-19T09:44:38;99790.03;;;19.25;66.59
50484;BME280;36409;52.168;20.878;2023-09-19T09:47:17;99792.02;;;19.21;67.04
50484;BME280;36409;52.168;20.878;2023-09-19T09:50:09;99795.77;;;19.17;67.07
50484;BME280;36409;52.168;20.878;2023-09-19T09:52:49;99795.00;;;19.15;67.43
50484;BME280;36409;52.168;20.878;2023-09-19T09:55:23;99797.65;;;19.15;67.45
50484;BME280;36409;52.168;20.878;2023-09-19T09:58:17;99802.87;;;19.17;67.59
50484;BME280;36409;52.168;20.878;2023-09-19T10:00:58;99811.64;;;19.17;67.94
50484;BME280;36409;52.168;20.878;2023-09-19T10:03:35;99816.93;;;19.17;68.29
50484;BME280;36409;52.168;20.878;2023-09-19T10:06:13;99821.11;;;19.21;68.54
50484;BME280;36409;52.168;20.878;2023-09-19T10:09:02;99823.48;;;19.26;68.60
50484;BME280;36409;52.168;20.878;2023-09-19T10:11:46;99823.87;;;19.34;68.96
50484;BME280;36409;52.168;20.878;2023-09-19T10:14:27;99818.41;;;19.37;68.80
50484;BME280;36409;52.168;20.878;2023-09-19T10:17:23;99816.31;;;19.42;69.04
50484;BME280;36409;52.168;20.878;2023-09-19T10:19:58;99817.67;;;19.50;69.06
50484;BME280;36409;52.168;20.878;2023-09-19T10:22:37;99821.74;;;19.55;69.21
50484;BME280;36409;52.168;20.878;2023-09-19T10:25:13;99819.58;;;19.62;69.79
50484;BME280;36409;52.168;20.878;2023-09-19T10:27:45;99825.35;;;19.69;69.59
50484;BME280;36409;52.168;20.878;2023-09-19T10:30:20;99822.31;;;19.75;69.57
50484;BME280;36409;52.168;20.878;2023-09-19T10:32:59;99813.25;;;19.79;69.82
50484;BME280;36409;52.168;20.878;2023-09-19T10:35:33;99810.22;;;19.85;70.30
50484;BME280;36409;52.168;20.878;2023-09-19T10:38:12;99810.61;;;19.94;69.87
50484;BME280;36409;52.168;20.878;2023-09-19T10:40:52;99811.09;;;20.00;70.56
50484;BME280;36409;52.168;20.878;2023-09-19T10:43:29;99802.84;;;20.05;70.27
50484;BME280;36409;52.168;20.878;2023-09-19T10:46:08;99803.61;;;20.07;69.87
50484;BME280;36409;52.168;20.878;2023-09-19T10:48:43;99810.53;;;20.10;70.49
50484;BME280;36409;52.168;20.878;2023-09-19T10:51:21;99811.37;;;20.10;69.93
50484;BME280;36409;52.168;20.878;2023-09-19T10:53:56;99810.31;;;20.13;70.15
50484;BME280;36409;52.168;20.878;2023-09-19T10:56:34;99822.44;;;20.17;70.15
50484;BME280;36409;52.168;20.878;2023-09-19T10:59:11;99816.95;;;20.20;70.30
50484;BME280;36409;52.168;20.878;2023-09-19T11:01:48;99827.98;;;20.27;70.65
50484;BME280;36409;52.168;20.878;2023-09-19T11:04:27;99829.50;;;20.31;70.55
50484;BME280;36409;52.168;20.878;2023-09-19T11:07:08;99830.08;;;20.36;70.70
50484;BME280;36409;52.168;20.878;2023-09-19T11:09:47;99829.86;;;20.39;70.71
50484;BME280;36409;52.168;20.878;2023-09-19T11:12:49;99833.84;;;20.46;70.33
50484;BME280;36409;52.168;20.878;2023-09-19T11:18:53;99832.48;;;20.53;70.82
50484;BME280;36409;52.168;20.878;2023-09-19T11:21:55;99827.83;;;20.57;70.81
50484;BME280;36409;52.168;20.878;2023-09-19T11:24:31;99831.72;;;20.51;70.94
50484;BME280;36409;52.168;20.878;2023-09-19T11:27:15;99826.72;;;20.47;70.73
50484;BME280;36409;52.168;20.878;2023-09-19T11:30:27;99824.94;;;20.47;70.89
50484;BME280;36409;52.168;20.878;2023-09-19T11:33:21;99822.74;;;20.54;70.60
50484;BME280;36409;52.168;20.878;2023-09-19T11:36:05;99829.34;;;20.61;70.53
50484;BME280;36409;52.168;20.878;2023-09-19T11:38:59;99837.18;;;20.63;70.85
50484;BME280;36409;52.168;20.878;2023-09-19T11:41:40;99841.72;;;20.61;70.57
50484;BME280;36409;52.168;20.878;2023-09-19T11:44:34;99841.72;;;20.61;70.81
50484;BME280;36409;52.168;20.878;2023-09-19T11:47:10;99834.75;;;20.60;70.98
50484;BME280;36409;52.168;20.878;2023-09-19T11:49:46;99844.48;;;20.59;71.05
50484;BME280;36409;52.168;20.878;2023-09-19T11:52:24;99841.95;;;20.58;70.94
50484;BME280;36409;52.168;20.878;2023-09-19T11:54:59;99844.48;;;20.59;71.02
50484;BME280;36409;52.168;20.878;2023-09-19T11:57:32;99847.03;;;20.61;70.75
50484;BME280;36409;52.168;20.878;2023-09-19T12:00:10;99847.14;;;20.59;70.56
50484;BME280;36409;52.168;20.878;2023-09-19T12:02:52;99849.03;;;20.57;70.53
50484;BME280;36409;52.168;20.878;2023-09-19T12:05:31;99857.47;;;20.49;70.57
50484;BME280;36409;52.168;20.878;2023-09-19T12:08:05;99854.92;;;20.48;71.25
50484;BME280;36409;52.168;20.878;2023-09-19T12:10:47;99854.09;;;20.47;71.00
50484;BME280;36409;52.168;20.878;2023-09-19T12:13:21;99853.33;;;20.45;71.00
50484;BME280;36409;52.168;20.878;2023-09-19T12:15:53;99855.98;;;20.45;70.82
50484;BME280;36409;52.168;20.878;2023-09-19T12:18:29;99863.93;;;20.45;71.30
50484;BME280;36409;52.168;20.878;2023-09-19T12:21:02;99862.23;;;20.44;71.34
50484;BME280;36409;52.168;20.878;2023-09-19T12:23:38;99866.01;;;20.40;70.91
50484;BME280;36409;52.168;20.878;2023-09-19T12:26:13;99870.00;;;20.33;71.33
50484;BME280;36409;52.168;20.878;2023-09-19T12:28:46;99866.78;;;20.28;71.41
50484;BME280;36409;52.168;20.878;2023-09-19T12:31:18;99863.58;;;20.23;71.17
50484;BME280;36409;52.168;20.878;2023-09-19T12:33:55;99867.36;;;20.18;70.98
50484;BME280;36409;52.168;20.878;2023-09-19T12:36:30;99874.55;;;20.16;71.07
50484;BME280;36409;52.168;20.878;2023-09-19T12:39:03;99867.55;;;20.15;71.42
50484;BME280;36409;52.168;20.878;2023-09-19T12:41:40;99872.84;;;20.15;71.47
50484;BME280;36409;52.168;20.878;2023-09-19T12:44:13;99873.71;;;20.16;71.60
50484;BME280;36409;52.168;20.878;2023-09-19T12:46:50;99878.42;;;20.11;71.61
50484;BME280;36409;52.168;20.878;2023-09-19T12:49:24;99873.23;;;20.09;71.23
50484;BME280;36409;52.168;20.878;2023-09-19T12:51:58;99867.94;;;20.09;71.64
50484;BME280;36409;52.168;20.878;2023-09-19T12:54:40;99864.45;;;20.09;71.16
50484;BME280;36409;52.168;20.878;2023-09-19T12:57:25;99865.76;;;20.01;71.44
50484;BME280;36409;52.168;20.878;2023-09-19T12:59:58;99862.34;;;19.99;71.82
50484;BME280;36409;52.168;20.878;2023-09-19T13:02:31;99861.69;;;19.96;71.44
50484;BME280;36409;52.168;20.878;2023-09-19T13:05:04;99862.92;;;19.90;71.96
50484;BME280;36409;52.168;20.878;2023-09-19T13:07:45;99860.38;;;19.88;71.54
50484;BME280;36409;52.168;20.878;2023-09-19T13:10:18;99859.61;;;19.86;71.84
50484;BME280;36409;52.168;20.878;2023-09-19T13:12:55;99861.21;;;19.89;71.89
50484;BME280;36409;52.168;20.878;2023-09-19T13:15:28;99853.52;;;19.84;71.96
50484;BME280;36409;52.168;20.878;2023-09-19T13:18:24;99859.86;;;19.82;71.87
50484;BME280;36409;52.168;20.878;2023-09-19T13:21:11;99862.62;;;19.80;71.97
50484;BME280;36409;52.168;20.878;2023-09-19T13:23:46;99862.62;;;19.80;71.85
50484;BME280;36409;52.168;20.878;2023-09-19T13:26:22;99863.27;;;19.84;72.18
50484;BME280;36409;52.168;20.878;2023-09-19T13:28:54;99864.98;;;19.85;71.92
50484;BME280;36409;52.168;20.878;2023-09-19T13:31:27;99872.85;;;19.86;72.26
50484;BME280;36409;52.168;20.878;2023-09-19T13:33:59;99877.09;;;19.89;72.02
50484;BME280;36409;52.168;20.878;2023-09-19T13:36:31;99874.38;;;19.90;72.39
50484;BME280;36409;52.168;20.878;2023-09-19T13:39:05;99878.73;;;19.92;72.52
50484;BME280;36409;52.168;20.878;2023-09-19T13:41:40;99879.57;;;19.92;72.58